Time;durP1;ratioP1;P1;durP2;ratioP2;P2;SDS_P1;SDS_P2;PMS_P1;PMS_P2;Temp;Humidity;BMP_temperature;BMP_pressure;BME280_temperature;BME280_humidity;BME280_pressure;Samples;Min_cycle;Max_cycle;Signal;HPM_P1;HPM_P2
2024/01/15 00:02:17;;;;;;;41.53;27.83;;;;;;;0.66;100.00;95379.63;5094906;28;20020;-68
2024/01/15 00:04:42;;;;;;;37.72;26.95;;;;;;;0.65;100.00;95383.16;5096926;28;20024;-69
2024/01/15 00:07:08;;;;;;;50.88;32.10;;;;;;;0.79;100.00;95378.00;5090070;28;20116;-69
2024/01/15 00:09:35;;;;;;;37.45;26.45;;;;;;;0.74;100.00;95374.81;5088574;28;20023;-69
2024/01/15 00:12:00;;;;;;;36.33;24.42;;;;;;;0.70;100.00;95365.56;5094900;28;20680;-69
2024/01/15 00:14:26;;;;;;;21.35;16.90;;;;;;;0.69;100.00;95345.75;5096174;28;20032;-69
2024/01/15 00:16:54;;;;;;;16.63;13.82;;;;;;;0.69;100.00;95332.81;5071784;28;20023;-69
2024/01/15 00:19:23;;;;;;;22.65;13.90;;;;;;;0.79;100.00;95335.69;5089088;28;20089;-69
2024/01/15 00:21:49;;;;;;;20.25;15.48;;;;;;;0.75;100.00;95313.47;5085496;28;20055;-69
2024/01/15 00:24:14;;;;;;;29.35;22.70;;;;;;;0.77;100.00;95307.25;5090510;28;20028;-69
2024/01/15 00:26:40;;;;;;;28.02;18.10;;;;;;;0.75;100.00;95297.94;5087194;28;20201;-69
2024/01/15 00:29:08;;;;;;;29.73;20.30;;;;;;;0.73;100.00;95298.00;5090902;28;20024;-68
2024/01/15 00:31:34;;;;;;;34.47;23.50;;;;;;;0.74;100.00;95291.91;5083941;28;20028;-69
2024/01/15 00:33:59;;;;;;;31.25;20.52;;;;;;;0.74;100.00;95299.66;5085561;28;20016;-69
2024/01/15 00:36:25;;;;;;;22.27;16.05;;;;;;;0.70;100.00;95287.84;5087994;28;20028;-69
2024/01/15 00:38:51;;;;;;;17.50;12.88;;;;;;;1.11;100.00;95289.69;5082830;28;20046;-69
2024/01/15 00:41:16;;;;;;;15.38;9.85;;;;;;;1.45;100.00;95293.72;5090721;28;20043;-69
2024/01/15 00:43:42;;;;;;;17.90;13.18;;;;;;;1.38;100.00;95286.31;5081923;28;20034;-68
2024/01/15 00:46:08;;;;;;;14.75;11.77;;;;;;;1.33;100.00;95293.56;5085366;28;20032;-69
2024/01/15 00:48:33;;;;;;;9.93;6.80;;;;;;;1.43;100.00;95305.00;5083334;28;20027;-68
2024/01/15 00:50:58;;;;;;;10.88;8.05;;;;;;;1.29;100.00;95307.66;5082531;28;20021;-68
2024/01/15 00:53:25;;;;;;;10.57;9.10;;;;;;;1.19;100.00;95309.97;5087239;28;20150;-68
2024/01/15 00:55:50;;;;;;;12.88;9.65;;;;;;;1.03;100.00;95323.03;5085886;28;20032;-68
2024/01/15 00:58:15;;;;;;;14.35;8.77;;;;;;;0.97;100.00;95325.97;5092626;28;20035;-69
2024/01/15 01:00:41;;;;;;;12.70;9.50;;;;;;;0.90;100.00;95328.13;5088515;28;20047;-69
2024/01/15 01:03:07;;;;;;;9.77;8.30;;;;;;;0.84;100.00;95337.09;5091921;28;20027;-69
2024/01/15 01:05:33;;;;;;;11.00;9.63;;;;;;;0.79;100.00;95339.13;5092188;28;20103;-69
2024/01/15 01:07:59;;;;;;;10.20;9.15;;;;;;;0.80;100.00;95342.53;5090067;28;20032;-69
2024/01/15 01:10:24;;;;;;;16.83;12.32;;;;;;;0.73;100.00;95349.84;5084203;28;20433;-69
2024/01/15 01:12:50;;;;;;;15.80;11.43;;;;;;;0.67;100.00;95365.75;5090290;28;20016;-68
2024/01/15 01:15:16;;;;;;;19.17;15.43;;;;;;;0.76;100.00;95370.38;5080399;28;20042;-69
2024/01/15 01:17:41;;;;;;;16.70;13.63;;;;;;;0.80;100.00;95369.31;5088033;28;20827;-68
2024/01/15 01:20:09;;;;;;;18.20;13.10;;;;;;;0.78;100.00;95378.09;5086646;28;20024;-69
2024/01/15 01:22:34;;;;;;;16.10;13.25;;;;;;;0.76;100.00;95370.38;5089216;28;20074;-69
2024/01/15 01:25:00;;;;;;;14.02;11.20;;;;;;;0.76;100.00;95372.97;5091148;28;20032;-69
2024/01/15 01:27:25;;;;;;;16.42;12.43;;;;;;;0.77;100.00;95363.47;5084170;28;20027;-69
2024/01/15 01:29:51;;;;;;;13.02;11.57;;;;;;;0.75;100.00;95360.94;5083598;28;20065;-69
2024/01/15 01:32:17;;;;;;;15.95;12.00;;;;;;;0.76;100.00;95372.97;5086667;28;20032;-69
2024/01/15 01:34:42;;;;;;;15.50;11.45;;;;;;;0.77;100.00;95359.09;5062381;28;20068;-69
2024/01/15 01:37:08;;;;;;;24.38;19.90;;;;;;;0.77;100.00;95364.28;5087484;28;20590;-69
2024/01/15 01:39:34;;;;;;;25.83;22.98;;;;;;;0.77;100.00;95358.28;5090610;28;20016;-69
2024/01/15 01:41:59;;;;;;;21.08;18.60;;;;;;;0.78;100.00;95359.94;5086668;28;20031;-69
2024/01/15 01:44:24;;;;;;;19.38;16.45;;;;;;;0.77;100.00;95353.09;5090186;28;20028;-69
2024/01/15 01:46:50;;;;;;;19.92;17.73;;;;;;;0.76;100.00;95341.06;5084722;28;20111;-69
2024/01/15 01:49:16;;;;;;;19.63;17.48;;;;;;;0.75;100.00;95335.03;5085745;28;20034;-69
2024/01/15 01:51:41;;;;;;;17.30;14.07;;;;;;;0.75;100.00;95334.22;5086185;28;20027;-69
2024/01/15 01:54:09;;;;;;;17.67;14.70;;;;;;;0.79;100.00;95336.53;5066540;28;20536;-69
2024/01/15 01:56:35;;;;;;;18.60;14.20;;;;;;;0.75;100.00;95337.63;5083062;28;20053;-69
2024/01/15 01:59:02;;;;;;;21.08;17.70;;;;;;;0.71;100.00;95330.97;5090047;28;20054;-69
2024/01/15 02:01:28;;;;;;;28.25;24.35;;;;;;;0.71;100.00;95338.72;5084201;28;20047;-69
2024/01/15 02:03:56;;;;;;;25.70;21.30;;;;;;;0.71;100.00;95334.41;5092426;28;20024;-69
2024/01/15 02:06:22;;;;;;;25.67;18.75;;;;;;;0.72;100.00;95343.00;5082157;28;20042;-69
2024/01/15 02:08:48;;;;;;;23.25;16.52;;;;;;;0.73;100.00;95341.25;5087761;28;20020;-69
2024/01/15 02:11:13;;;;;;;22.98;16.40;;;;;;;0.68;100.00;95355.31;5079016;28;20027;-69
2024/01/15 02:13:39;;;;;;;20.60;14.90;;;;;;;0.67;100.00;95351.06;5086949;28;20016;-69
2024/01/15 02:16:05;;;;;;;22.05;15.43;;;;;;;1.02;100.00;95360.25;5079883;28;20561;-69
2024/01/15 02:18:40;;;;;;;24.70;17.33;;;;;;;0.94;100.00;95365.03;5077876;28;20078;-69
2024/01/15 02:21:05;;;;;;;16.63;13.57;;;;;;;0.91;100.00;95360.06;5085728;28;20036;-69
2024/01/15 02:23:31;;;;;;;14.52;11.27;;;;;;;0.89;100.00;95351.53;5082623;28;20027;-69
2024/01/15 02:25:56;;;;;;;13.40;9.85;;;;;;;0.87;100.00;95356.78;5085209;28;20028;-69
2024/01/15 02:28:21;;;;;;;13.85;10.70;;;;;;;0.83;100.00;95358.75;5084218;28;20038;-69
2024/01/15 02:30:47;;;;;;;14.63;11.32;;;;;;;0.74;100.00;95358.47;5086049;28;20095;-69
2024/01/15 02:33:13;;;;;;;15.13;11.43;;;;;;;0.71;100.00;95356.88;5085369;28;20023;-69
2024/01/15 02:35:38;;;;;;;13.27;11.07;;;;;;;0.66;100.00;95354.56;5065794;28;20028;-69
2024/01/15 02:38:05;;;;;;;13.20;11.55;;;;;;;0.66;100.00;95356.31;5080975;28;20103;-70
2024/01/15 02:40:30;;;;;;;17.35;12.27;;;;;;;0.66;100.00;95353.72;5069994;28;20017;-69
2024/01/15 02:42:56;;;;;;;15.18;11.93;;;;;;;0.66;100.00;95345.94;5056654;28;20434;-69
2024/01/15 02:45:22;;;;;;;15.15;12.23;;;;;;;0.65;100.00;95344.28;5087496;28;20024;-70
2024/01/15 02:47:47;;;;;;;15.27;12.35;;;;;;;0.65;100.00;95346.88;5089149;28;20024;-69
2024/01/15 02:50:13;;;;;;;15.57;12.63;;;;;;;0.60;100.00;95347.13;5087746;28;20074;-69
2024/01/15 02:52:38;;;;;;;16.33;12.55;;;;;;;0.60;100.00;95336.78;5085443;28;20031;-69
2024/01/15 02:55:04;;;;;;;18.30;13.23;;;;;;;0.63;100.00;95333.19;5081995;28;20043;-70
2024/01/15 02:57:29;;;;;;;21.08;14.82;;;;;;;0.64;100.00;95329.66;5080119;28;20028;-69
2024/01/15 02:59:55;;;;;;;27.77;19.73;;;;;;;0.66;100.00;95325.22;5084515;28;20031;-69
2024/01/15 03:02:20;;;;;;;32.38;19.80;;;;;;;0.68;100.00;95318.19;5082519;28;20107;-69
2024/01/15 03:04:46;;;;;;;24.63;18.15;;;;;;;0.68;100.00;95320.78;5064819;28;20058;-69
2024/01/15 03:07:11;;;;;;;22.50;15.07;;;;;;;0.67;100.00;95325.13;5085056;28;20024;-69
2024/01/15 03:09:37;;;;;;;22.73;15.07;;;;;;;0.74;100.00;95299.66;5081790;28;20024;-69
2024/01/15 03:12:03;;;;;;;20.48;12.90;;;;;;;0.73;100.00;95294.59;5085644;28;20024;-69
2024/01/15 03:14:28;;;;;;;17.42;12.18;;;;;;;0.71;100.00;95302.44;5082426;28;20027;-69
2024/01/15 03:16:54;;;;;;;17.35;13.52;;;;;;;0.70;100.00;95295.59;5087993;28;20031;-69
2024/01/15 03:19:19;;;;;;;17.60;12.57;;;;;;;0.73;100.00;95304.97;5090232;28;20068;-69
2024/01/15 03:21:44;;;;;;;15.93;12.70;;;;;;;0.71;100.00;95307.63;5073476;28;20127;-69
2024/01/15 03:24:10;;;;;;;18.80;14.13;;;;;;;0.69;100.00;95312.06;5099480;28;20019;-69
2024/01/15 03:26:35;;;;;;;42.40;27.15;;;;;;;0.68;100.00;95318.19;5099673;28;20035;-69
2024/01/15 03:29:01;;;;;;;18.60;14.75;;;;;;;0.73;100.00;95318.75;5094310;28;20017;-69
2024/01/15 03:31:26;;;;;;;18.50;13.55;;;;;;;0.74;100.00;95312.63;5075835;28;20726;-69
2024/01/15 03:33:51;;;;;;;22.13;15.82;;;;;;;0.73;100.00;95304.97;5091420;28;20023;-69
2024/01/15 03:36:17;;;;;;;16.02;12.35;;;;;;;0.68;100.00;95302.63;5085889;28;20027;-69
2024/01/15 03:38:42;;;;;;;13.43;11.45;;;;;;;0.76;100.00;95305.59;5094391;28;20012;-69
2024/01/15 03:41:08;;;;;;;13.93;10.73;;;;;;;0.79;100.00;95297.66;5097519;28;20024;-69
2024/01/15 03:43:33;;;;;;;21.55;15.38;;;;;;;0.75;100.00;95292.75;5084217;28;20016;-69
2024/01/15 03:45:59;;;;;;;30.35;18.98;;;;;;;0.73;100.00;95285.06;5091345;28;20164;-69
2024/01/15 03:48:24;;;;;;;27.17;18.85;;;;;;;0.73;100.00;95276.47;5089243;28;20038;-69
2024/01/15 03:50:50;;;;;;;16.23;12.68;;;;;;;0.73;100.00;95274.69;5094005;28;20119;-69
2024/01/15 03:53:15;;;;;;;23.90;17.98;;;;;;;0.75;100.00;95272.84;5084996;28;20013;-69
2024/01/15 03:55:41;;;;;;;18.75;13.07;;;;;;;0.77;100.00;95268.38;5076361;28;20633;-69
2024/01/15 03:58:06;;;;;;;18.77;13.20;;;;;;;0.83;100.00;95282.75;5057427;28;20080;-69
2024/01/15 04:00:31;;;;;;;16.35;12.23;;;;;;;0.80;100.00;95270.81;5079018;28;20032;-69
2024/01/15 04:02:57;;;;;;;16.27;11.65;;;;;;;0.80;100.00;95259.59;5096158;28;20028;-69
2024/01/15 04:05:22;;;;;;;13.75;11.25;;;;;;;0.77;100.00;95255.44;5087291;28;20020;-69
2024/01/15 04:07:47;;;;;;;14.95;10.82;;;;;;;0.77;100.00;95257.19;5092334;28;20021;-69
2024/01/15 04:10:13;;;;;;;13.50;10.90;;;;;;;0.75;100.00;95244.31;5104554;28;20471;-70
2024/01/15 04:12:38;;;;;;;15.82;10.70;;;;;;;0.75;100.00;95246.09;5089976;28;20063;-69
2024/01/15 04:15:04;;;;;;;12.00;9.65;;;;;;;0.73;100.00;95250.53;5084137;28;20043;-69
2024/01/15 04:17:29;;;;;;;10.75;9.10;;;;;;;0.73;100.00;95246.19;5087850;28;20079;-69
2024/01/15 04:19:55;;;;;;;11.45;10.23;;;;;;;0.73;100.00;95238.41;5080821;28;20095;-69
2024/01/15 04:22:20;;;;;;;13.18;11.90;;;;;;;0.75;100.00;95220.19;5082590;28;20113;-69
2024/01/15 04:24:46;;;;;;;12.18;10.90;;;;;;;0.77;100.00;95218.34;5091633;28;20795;-69
2024/01/15 04:27:11;;;;;;;17.67;14.95;;;;;;;0.78;100.00;95220.00;5087577;28;20013;-69
2024/01/15 04:29:39;;;;;;;16.60;13.05;;;;;;;0.79;100.00;95227.69;5091748;28;20099;-69
2024/01/15 04:32:05;;;;;;;16.70;12.73;;;;;;;0.80;100.00;95231.94;5088289;28;20549;-69
2024/01/15 04:34:30;;;;;;;15.77;13.55;;;;;;;0.79;100.00;95226.84;5102353;28;20036;-69
2024/01/15 04:36:56;;;;;;;23.95;15.57;;;;;;;0.77;100.00;95211.38;5086557;28;20107;-69
2024/01/15 04:39:22;;;;;;;20.23;16.50;;;;;;;0.80;100.00;95215.53;5094999;28;20030;-69
2024/01/15 04:41:47;;;;;;;23.42;17.10;;;;;;;0.81;100.00;95217.22;5097359;28;20039;-69
2024/01/15 04:44:13;;;;;;;17.20;14.52;;;;;;;0.80;100.00;95207.78;5087067;28;20032;-69
2024/01/15 04:46:38;;;;;;;17.60;12.75;;;;;;;0.81;100.00;95196.47;5117459;28;20554;-69
2024/01/15 04:49:03;;;;;;;13.70;11.63;;;;;;;0.81;100.00;95204.25;5082252;28;20040;-69
2024/01/15 04:51:29;;;;;;;12.63;10.88;;;;;;;0.79;100.00;95204.38;5086140;28;20016;-70
2024/01/15 04:53:54;;;;;;;12.15;10.88;;;;;;;0.78;100.00;95194.94;5064010;28;20381;-69
2024/01/15 04:56:20;;;;;;;11.50;9.88;;;;;;;0.79;100.00;95195.75;5071574;28;20025;-69
2024/01/15 04:58:45;;;;;;;15.57;11.60;;;;;;;0.78;100.00;95184.56;5092333;28;20066;-69
2024/01/15 05:01:11;;;;;;;16.08;11.60;;;;;;;0.82;100.00;95185.19;5092318;28;20434;-69
2024/01/15 05:03:36;;;;;;;12.88;10.82;;;;;;;0.83;100.00;95187.69;5096337;28;20038;-69
2024/01/15 05:06:02;;;;;;;14.75;12.18;;;;;;;0.83;100.00;95186.84;5079866;28;20492;-70
2024/01/15 05:08:27;;;;;;;13.52;9.95;;;;;;;0.94;100.00;95188.78;5092977;28;20016;-69
2024/01/15 05:10:53;;;;;;;9.85;8.52;;;;;;;0.91;100.00;95195.00;5088965;28;20086;-69
2024/01/15 05:13:18;;;;;;;10.23;7.88;;;;;;;0.88;100.00;95195.16;5073671;28;20067;-69
2024/01/15 05:15:44;;;;;;;8.65;7.75;;;;;;;0.89;100.00;95188.25;5087799;28;20028;-70
2024/01/15 05:18:09;;;;;;;11.77;8.45;;;;;;;0.88;100.00;95194.34;5090911;28;20035;-69
2024/01/15 05:20:34;;;;;;;8.15;7.20;;;;;;;0.87;100.00;95190.91;5088699;28;20111;-69
2024/01/15 05:23:00;;;;;;;7.40;6.63;;;;;;;0.88;100.00;95196.94;5078154;28;20055;-69
2024/01/15 05:25:25;;;;;;;7.53;6.82;;;;;;;0.89;100.00;95193.41;5089628;28;20088;-69
2024/01/15 05:27:51;;;;;;;7.90;7.13;;;;;;;0.88;100.00;95194.34;5079785;28;20106;-69
2024/01/15 05:30:16;;;;;;;12.95;8.52;;;;;;;0.89;100.00;95188.25;5105165;28;20035;-70
2024/01/15 05:32:42;;;;;;;11.23;8.52;;;;;;;0.89;100.00;95190.81;5090241;28;20046;-69
2024/01/15 05:35:07;;;;;;;8.68;7.40;;;;;;;0.89;100.00;95180.47;5096218;28;20020;-69
2024/01/15 05:37:33;;;;;;;9.40;7.47;;;;;;;0.91;100.00;95176.00;5089802;28;20084;-70
2024/01/15 05:39:58;;;;;;;9.48;7.88;;;;;;;0.91;100.00;95176.00;5103419;28;20039;-69
2024/01/15 05:42:23;;;;;;;7.97;7.25;;;;;;;0.88;100.00;95173.63;5096910;28;20521;-70
2024/01/15 05:44:49;;;;;;;8.15;7.30;;;;;;;0.84;100.00;95168.63;5091925;28;20024;-69
2024/01/15 05:47:14;;;;;;;9.10;8.00;;;;;;;0.83;100.00;95160.94;5095506;28;20148;-70
2024/01/15 05:49:40;;;;;;;14.82;11.32;;;;;;;0.81;100.00;95150.69;5089642;28;20035;-70
2024/01/15 05:52:06;;;;;;;14.52;12.93;;;;;;;0.84;100.00;95158.25;5072553;28;20103;-68
2024/01/15 05:54:31;;;;;;;16.50;14.80;;;;;;;0.95;100.00;95146.38;5083984;28;20024;-70
2024/01/15 05:56:57;;;;;;;21.92;16.27;;;;;;;0.92;100.00;95141.38;5090728;28;20019;-70
2024/01/15 05:59:22;;;;;;;12.95;11.57;;;;;;;0.90;100.00;95136.31;5093973;28;20027;-70
2024/01/15 06:01:47;;;;;;;19.48;15.40;;;;;;;0.87;100.00;95133.88;5099537;28;20028;-69
2024/01/15 06:04:13;;;;;;;18.58;14.68;;;;;;;0.86;100.00;95116.69;5095031;28;20028;-70
2024/01/15 06:06:38;;;;;;;16.55;12.77;;;;;;;0.88;100.00;95114.00;5083984;28;20028;-69
2024/01/15 06:09:08;;;;;;;12.95;10.15;;;;;;;0.94;100.00;95108.41;5060294;28;20016;-70
2024/01/15 06:11:34;;;;;;;15.57;14.00;;;;;;;0.94;100.00;95100.66;5079603;28;20094;-70
2024/01/15 06:14:02;;;;;;;16.67;12.48;;;;;;;0.93;100.00;95093.78;5081175;28;20055;-70
2024/01/15 06:16:28;;;;;;;16.33;12.25;;;;;;;0.92;100.00;95092.97;5090645;28;20121;-70
2024/01/15 06:18:53;;;;;;;10.82;9.77;;;;;;;0.91;100.00;95078.34;5084188;28;20028;-70
2024/01/15 06:21:20;;;;;;;9.20;7.32;;;;;;;0.91;100.00;95074.91;5095322;28;20064;-70
2024/01/15 06:23:45;;;;;;;8.55;7.72;;;;;;;0.89;100.00;95077.63;5094830;28;20157;-70
2024/01/15 06:26:13;;;;;;;8.25;7.45;;;;;;;0.96;100.00;95081.47;5086880;28;20032;-70
2024/01/15 06:28:39;;;;;;;11.15;7.68;;;;;;;1.10;100.00;95071.97;5088849;28;20145;-70
2024/01/15 06:31:06;;;;;;;8.70;7.85;;;;;;;1.27;100.00;95076.09;5086887;28;20507;-70
2024/01/15 06:33:32;;;;;;;8.95;8.05;;;;;;;1.09;100.00;95080.69;5086759;28;20489;-69
2024/01/15 06:35:57;;;;;;;12.38;8.82;;;;;;;1.00;100.00;95085.53;5090293;28;20063;-71
2024/01/15 06:38:23;;;;;;;10.70;8.63;;;;;;;0.96;100.00;95078.88;5094235;28;20085;-70
2024/01/15 06:40:48;;;;;;;10.75;9.50;;;;;;;0.95;100.00;95082.41;5088560;28;20031;-71
2024/01/15 06:43:15;;;;;;;11.45;10.38;;;;;;;0.95;100.00;95078.97;5094462;28;20487;-71
2024/01/15 06:45:41;;;;;;;13.95;12.52;;;;;;;0.96;100.00;95080.63;5082840;28;20028;-70
2024/01/15 06:48:07;;;;;;;17.38;15.77;;;;;;;0.96;100.00;95078.88;5088245;28;20093;-71
2024/01/15 06:50:33;;;;;;;14.23;12.75;;;;;;;1.04;100.00;95085.34;5092830;28;20032;-72
2024/01/15 06:52:58;;;;;;;17.10;13.38;;;;;;;0.99;100.00;95075.25;5093636;28;20036;-73
2024/01/15 06:55:23;;;;;;;16.85;15.23;;;;;;;0.98;100.00;95081.38;5086212;28;20122;-72
2024/01/15 06:57:49;;;;;;;14.73;12.35;;;;;;;1.01;100.00;95081.19;5092020;28;20024;-71
2024/01/15 07:00:15;;;;;;;13.68;12.02;;;;;;;0.99;100.00;95089.06;5086515;28;20085;-71
2024/01/15 07:02:41;;;;;;;18.92;17.08;;;;;;;0.96;100.00;95086.66;5088770;28;20028;-71
2024/01/15 07:05:07;;;;;;;25.25;22.15;;;;;;;0.95;100.00;95086.75;5096362;28;20111;-73
2024/01/15 07:07:32;;;;;;;15.40;13.75;;;;;;;0.93;100.00;95093.78;5083465;28;20516;-72
2024/01/15 07:09:58;;;;;;;12.15;10.20;;;;;;;0.94;100.00;95090.28;5078344;28;20473;-72
2024/01/15 07:12:23;;;;;;;12.95;9.82;;;;;;;0.97;100.00;95096.09;5077986;28;20032;-75
2024/01/15 07:14:49;;;;;;;14.60;9.45;;;;;;;1.01;100.00;95096.75;5080801;28;20048;-73
2024/01/15 07:17:14;;;;;;;14.32;10.55;;;;;;;1.03;100.00;95094.03;5094567;28;20020;-70
2024/01/15 07:19:40;;;;;;;13.85;11.75;;;;;;;1.04;100.00;95090.53;5080253;28;20035;-71
2024/01/15 07:22:05;;;;;;;15.07;13.55;;;;;;;1.02;100.00;95093.22;5095645;28;20036;-72
2024/01/15 07:24:30;;;;;;;18.75;12.50;;;;;;;1.02;100.00;95090.63;5082425;28;20137;-72
2024/01/15 07:26:56;;;;;;;14.65;12.18;;;;;;;0.99;100.00;95094.25;5079317;28;20021;-71
2024/01/15 07:29:21;;;;;;;14.82;13.45;;;;;;;0.99;100.00;95093.41;5093605;28;20401;-71
2024/01/15 07:31:50;;;;;;;13.73;12.38;;;;;;;1.02;100.00;95084.59;5094563;28;20478;-71
2024/01/15 07:34:16;;;;;;;15.23;13.43;;;;;;;1.00;100.00;95097.69;5089212;28;20020;-71
2024/01/15 07:36:43;;;;;;;15.50;14.00;;;;;;;0.99;100.00;95093.41;5095523;28;20022;-72
2024/01/15 07:39:09;;;;;;;13.70;12.30;;;;;;;0.98;100.00;95094.31;5091044;28;20073;-72
2024/01/15 07:41:34;;;;;;;13.48;12.13;;;;;;;1.00;100.00;95089.91;5088783;28;20027;-73
2024/01/15 07:44:00;;;;;;;29.45;24.20;;;;;;;0.99;100.00;95093.41;5079495;28;20447;-74
2024/01/15 07:46:25;;;;;;;31.50;27.20;;;;;;;0.99;100.00;95085.63;5100485;28;20031;-72
2024/01/15 07:48:55;;;;;;;32.88;25.15;;;;;;;0.97;100.00;95090.06;5084981;28;20051;-71
2024/01/15 07:51:24;;;;;;;34.55;27.58;;;;;;;0.92;100.00;95090.38;5084741;28;20602;-72
2024/01/15 07:53:49;;;;;;;33.50;27.30;;;;;;;0.93;100.00;95091.22;5087576;28;20226;-72
2024/01/15 07:56:15;;;;;;;32.92;28.58;;;;;;;1.04;100.00;95096.56;5091246;28;20040;-72
2024/01/15 07:58:41;;;;;;;43.25;31.42;;;;;;;1.07;100.00;95106.72;5088503;28;20023;-71
2024/01/15 08:01:07;;;;;;;60.15;38.55;;;;;;;0.98;100.00;95117.66;5090248;28;20074;-72
2024/01/15 08:03:32;;;;;;;97.15;41.03;;;;;;;0.85;100.00;95121.03;5066233;28;20081;-71
2024/01/15 08:05:59;;;;;;;90.68;37.65;;;;;;;0.80;100.00;95135.22;5090834;28;20088;-71
2024/01/15 08:08:25;;;;;;;65.45;41.38;;;;;;;0.62;100.00;95144.97;5088054;28;20500;-71
2024/01/15 08:10:52;;;;;;;56.47;40.38;;;;;;;0.43;100.00;95144.31;5093375;28;20431;-70
2024/01/15 08:13:18;;;;;;;50.72;40.80;;;;;;;0.39;100.00;95145.44;5095425;28;20042;-71
2024/01/15 08:15:44;;;;;;;49.13;39.45;;;;;;;0.41;100.00;95135.00;5087147;28;20456;-71
2024/01/15 08:18:09;;;;;;;50.03;36.05;;;;;;;0.42;100.00;95140.06;5089854;28;20069;-71
2024/01/15 08:20:34;;;;;;;43.92;36.70;;;;;;;0.45;100.00;95140.81;5088596;28;20043;-71
2024/01/15 08:23:00;;;;;;;53.97;37.90;;;;;;;0.48;100.00;95143.22;5094685;28;20044;-71
2024/01/15 08:25:25;;;;;;;43.30;36.92;;;;;;;0.47;100.00;95139.78;5089773;28;20028;-71
2024/01/15 08:27:52;;;;;;;49.50;36.72;;;;;;;0.48;100.00;95138.03;5094706;28;20107;-71
2024/01/15 08:30:18;;;;;;;55.17;40.75;;;;;;;0.49;100.00;95137.94;5089301;28;20031;-71
2024/01/15 08:32:44;;;;;;;53.35;41.78;;;;;;;0.54;100.00;95140.25;5102627;28;20020;-71
2024/01/15 08:35:10;;;;;;;46.65;37.65;;;;;;;0.57;100.00;95129.69;5091926;28;20027;-72
2024/01/15 08:37:37;;;;;;;39.13;32.45;;;;;;;0.62;100.00;95121.66;5090591;28;20419;-71
2024/01/15 08:40:03;;;;;;;50.13;38.47;;;;;;;0.64;100.00;95119.78;5091904;28;20028;-72
2024/01/15 08:42:29;;;;;;;46.22;36.95;;;;;;;0.66;100.00;95110.16;5086830;28;20040;-71
2024/01/15 08:44:54;;;;;;;46.63;37.97;;;;;;;0.67;100.00;95093.69;5079105;28;20020;-71
2024/01/15 08:47:19;;;;;;;49.50;39.65;;;;;;;0.72;100.00;95104.59;5075832;28;20031;-71
2024/01/15 08:49:46;;;;;;;52.70;39.20;;;;;;;0.77;100.00;95094.75;5089010;28;20476;-71
2024/01/15 08:52:11;;;;;;;53.35;42.33;;;;;;;0.83;100.00;95089.22;5071943;28;20111;-72
2024/01/15 08:54:37;;;;;;;57.10;41.15;;;;;;;0.85;100.00;95082.16;5085068;28;20055;-72
2024/01/15 08:57:02;;;;;;;49.53;39.17;;;;;;;0.90;100.00;95089.66;5095228;28;20024;-71
2024/01/15 08:59:28;;;;;;;54.15;40.72;;;;;;;0.93;100.00;95088.63;5085658;28;20643;-71
2024/01/15 09:01:53;;;;;;;53.13;38.08;;;;;;;0.93;100.00;95089.47;5094074;28;20091;-71
2024/01/15 09:04:19;;;;;;;45.90;35.05;;;;;;;0.96;100.00;95080.63;5070868;28;20024;-71
2024/01/15 09:06:47;;;;;;;40.83;34.47;;;;;;;0.99;100.00;95064.88;5097245;28;20416;-71
2024/01/15 09:09:14;;;;;;;41.90;33.53;;;;;;;1.07;100.00;95062.66;5096943;28;20044;-71
2024/01/15 09:11:40;;;;;;;42.63;33.60;;;;;;;1.14;100.00;95060.50;5098270;28;20035;-71
2024/01/15 09:14:06;;;;;;;48.80;37.95;;;;;;;1.25;100.00;95063.19;5079414;28;20016;-71
2024/01/15 09:16:31;;;;;;;70.47;55.85;;;;;;;1.29;100.00;95051.69;5081840;28;20097;-71
2024/01/15 09:18:57;;;;;;;86.80;74.38;;;;;;;1.29;100.00;95059.47;5080809;28;20028;-71
2024/01/15 09:21:24;;;;;;;92.20;82.22;;;;;;;1.31;100.00;95061.97;5088843;28;20069;-71
2024/01/15 09:23:50;;;;;;;64.43;55.88;;;;;;;1.33;100.00;95062.69;5091555;28;20588;-71
2024/01/15 09:26:15;;;;;;;45.78;36.58;;;;;;;1.33;100.00;95062.69;5080713;28;20032;-70
2024/01/15 09:28:40;;;;;;;38.20;33.42;;;;;;;1.39;100.00;95056.28;5089234;28;20561;-70
2024/01/15 09:31:06;;;;;;;46.80;36.63;;;;;;;1.47;100.00;95061.78;5092718;28;20556;-70
2024/01/15 09:33:31;;;;;;;36.90;30.42;;;;;;;1.54;100.00;95057.03;5088812;28;20557;-70
2024/01/15 09:35:57;;;;;;;35.22;30.13;;;;;;;1.62;100.00;95065.13;5086692;28;20028;-70
2024/01/15 09:38:23;;;;;;;34.85;29.83;;;;;;;1.68;100.00;95062.13;5068608;28;20081;-70
2024/01/15 09:40:49;;;;;;;38.90;30.85;;;;;;;1.72;100.00;95054.97;5084570;28;20074;-70
2024/01/15 09:43:15;;;;;;;57.60;46.03;;;;;;;1.74;100.00;95057.47;5092787;28;20543;-70
2024/01/15 09:45:42;;;;;;;60.40;42.75;;;;;;;1.71;100.00;95064.53;5088526;28;20111;-70
2024/01/15 09:48:08;;;;;;;56.10;40.65;;;;;;;1.71;100.00;95063.69;5093145;28;20027;-70
2024/01/15 09:50:34;;;;;;;43.30;35.70;;;;;;;1.76;100.00;95050.41;5092691;28;20047;-70
2024/01/15 09:52:59;;;;;;;39.67;30.90;;;;;;;1.81;100.00;95053.50;5088715;28;20027;-70
2024/01/15 09:55:26;;;;;;;28.33;24.35;;;;;;;1.80;100.00;95041.47;5093372;28;20028;-70
2024/01/15 09:57:55;;;;;;;26.10;23.48;;;;;;;1.89;100.00;95048.66;5086989;28;20032;-70
2024/01/15 10:00:21;;;;;;;27.23;24.42;;;;;;;1.97;100.00;95051.53;5080020;28;20489;-70
2024/01/15 10:02:46;;;;;;;35.90;31.67;;;;;;;2.04;100.00;95049.34;5092342;28;20021;-70
2024/01/15 10:05:12;;;;;;;28.05;23.88;;;;;;;2.05;100.00;95068.34;5088103;28;20062;-69
2024/01/15 10:07:39;;;;;;;26.55;21.88;;;;;;;1.93;100.00;95072.63;5091821;28;20024;-70
2024/01/15 10:10:05;;;;;;;18.17;16.42;;;;;;;1.83;100.00;95069.81;5093037;28;20024;-70
2024/01/15 10:12:30;;;;;;;24.55;20.73;;;;;;;1.86;100.00;95062.66;5087678;28;20508;-70
2024/01/15 10:14:56;;;;;;;28.92;25.33;;;;;;;1.92;100.00;95068.34;5084246;28;20016;-70
2024/01/15 10:17:21;;;;;;;32.20;27.63;;;;;;;1.94;100.00;95071.69;5088439;28;20023;-70
2024/01/15 10:19:47;;;;;;;30.30;27.00;;;;;;;1.95;100.00;95070.75;5089604;28;20026;-70
2024/01/15 10:22:15;;;;;;;31.88;28.45;;;;;;;1.93;100.00;95068.25;5085361;28;20032;-72
2024/01/15 10:24:41;;;;;;;36.13;32.30;;;;;;;1.90;100.00;95058.09;5089474;28;20044;-70
2024/01/15 10:27:10;;;;;;;37.25;33.13;;;;;;;1.87;100.00;95055.69;5091452;28;20169;-70
2024/01/15 10:29:36;;;;;;;36.13;32.42;;;;;;;1.93;100.00;95049.25;5080059;28;20029;-71
2024/01/15 10:32:03;;;;;;;31.73;27.90;;;;;;;1.95;100.00;95055.16;5094539;28;20066;-71
2024/01/15 10:34:30;;;;;;;22.17;20.08;;;;;;;1.99;100.00;95073.03;5086809;28;20027;-71
2024/01/15 10:36:56;;;;;;;22.25;19.95;;;;;;;2.03;100.00;95075.41;5088424;28;20024;-72
2024/01/15 10:39:22;;;;;;;26.45;23.75;;;;;;;1.98;100.00;95071.38;5090705;28;20483;-72
2024/01/15 10:41:48;;;;;;;40.17;36.08;;;;;;;1.97;100.00;95069.72;5087961;28;20431;-72
2024/01/15 10:44:13;;;;;;;41.45;34.05;;;;;;;2.09;100.00;95065.44;5089553;28;20081;-72
2024/01/15 10:46:39;;;;;;;28.17;25.50;;;;;;;2.05;100.00;95065.75;5082872;28;20035;-71
2024/01/15 10:49:05;;;;;;;22.77;20.45;;;;;;;2.03;100.00;95062.44;5095527;28;20031;-71
2024/01/15 10:51:31;;;;;;;26.50;23.10;;;;;;;2.08;100.00;95065.53;5100612;28;20057;-70
2024/01/15 10:53:57;;;;;;;26.10;23.38;;;;;;;2.07;100.00;95056.09;5093568;28;20627;-71
2024/01/15 10:56:23;;;;;;;29.33;25.00;;;;;;;2.08;100.00;95050.81;5093938;28;20036;-71
2024/01/15 10:58:50;;;;;;;37.35;27.95;;;;;;;2.07;100.00;95050.91;5094459;28;20028;-70
2024/01/15 11:01:16;;;;;;;33.08;29.77;;;;;;;2.05;100.00;95076.97;5092827;28;20032;-71
2024/01/15 11:03:43;;;;;;;27.48;24.52;;;;;;;2.04;100.00;95090.06;5098366;28;20119;-70
2024/01/15 11:06:19;;;;;;;20.35;18.08;;;;;;;2.03;100.00;95093.59;5095456;28;20473;-71
2024/01/15 11:08:49;;;;;;;23.38;19.00;;;;;;;1.98;100.00;95081.75;5097317;28;20035;-70
2024/01/15 11:11:15;;;;;;;21.25;16.90;;;;;;;1.95;100.00;95079.38;5101048;28;20036;-70
2024/01/15 11:13:43;;;;;;;18.83;16.90;;;;;;;1.97;100.00;95085.28;5100276;28;20037;-70